createdAt,value
2022-11-30T00:04:00.439Z,28.75
2022-11-30T00:09:04.688Z,29.83
2022-11-30T00:14:07.616Z,30.40
2022-11-30T00:19:10.387Z,30.88
2022-11-30T00:24:14.494Z,30.17
2022-11-30T00:29:17.278Z,29.80
2022-11-30T00:34:20.045Z,30.90
2022-11-30T00:39:24.145Z,29.38
2022-11-30T00:44:26.880Z,30.27
2022-11-30T00:49:29.630Z,29.33
2022-11-30T00:54:35.111Z,31.10
2022-11-30T00:59:37.825Z,30.35
2022-11-30T01:04:40.601Z,30.60
2022-11-30T01:09:44.760Z,28.20
2022-11-30T01:14:47.904Z,28.05
2022-11-30T01:19:51.201Z,29.65
2022-11-30T01:24:56.710Z,29.77
2022-11-30T01:29:59.620Z,29.27
2022-11-30T01:35:02.328Z,29.67
2022-11-30T01:40:07.941Z,29.08
2022-11-30T01:45:14.321Z,26.90
2022-11-30T01:50:21.411Z,27.92
2022-11-30T01:55:29.018Z,28.00
2022-11-30T02:00:31.843Z,28.13
2022-11-30T02:05:41.542Z,30.00
2022-11-30T02:10:51.239Z,28.83
2022-11-30T02:16:04.333Z,29.50
2022-11-30T02:21:14.829Z,28.90
2022-11-30T02:26:48.529Z,29.75
2022-11-30T02:31:58.015Z,30.45
2022-11-30T02:37:02.137Z,29.52
2022-11-30T02:42:05.094Z,28.63
2022-11-30T02:47:21.563Z,28.80
2022-11-30T02:52:27.325Z,31.23
2022-11-30T02:57:30.108Z,32.60
2022-11-30T03:02:34.450Z,30.88
2022-11-30T03:07:37.630Z,32.95
2022-11-30T03:12:40.415Z,32.72
2022-11-30T03:17:44.579Z,30.45
2022-11-30T03:22:47.590Z,31.27
2022-11-30T03:27:50.371Z,31.65
2022-11-30T03:32:54.537Z,32.38
2022-11-30T03:37:57.592Z,31.25
2022-11-30T03:43:00.367Z,31.92
2022-11-30T03:48:04.709Z,31.52
2022-11-30T03:53:07.458Z,31.65
2022-11-30T03:58:10.299Z,32.45
2022-11-30T04:03:14.579Z,32.05
2022-11-30T04:08:17.350Z,31.02
2022-11-30T04:13:20.192Z,31.67
2022-11-30T04:18:26.207Z,31.52
2022-11-30T04:23:31.486Z,31.92
2022-11-30T04:28:35.210Z,31.45
2022-11-30T04:33:39.414Z,30.33
2022-11-30T04:38:42.193Z,30.23
2022-11-30T04:43:45.033Z,31.35
2022-11-30T04:48:49.194Z,31.85
2022-11-30T04:53:51.979Z,30.70
2022-11-30T04:58:54.811Z,31.10
2022-11-30T05:04:00.243Z,30.95
2022-11-30T05:09:03.167Z,29.25
2022-11-30T05:14:06.392Z,29.70
2022-11-30T05:19:10.517Z,29.13
2022-11-30T05:24:13.640Z,30.38
2022-11-30T05:29:16.422Z,29.83
2022-11-30T05:34:20.555Z,30.20
2022-11-30T05:39:23.467Z,30.00
2022-11-30T05:44:27.339Z,31.00
2022-11-30T05:49:31.717Z,29.45
2022-11-30T05:54:34.915Z,28.88
2022-11-30T05:59:37.718Z,28.15
2022-11-30T06:04:42.145Z,29.38
2022-11-30T06:09:46.395Z,28.85
2022-11-30T06:14:50.817Z,28.38
2022-11-30T06:19:55.030Z,27.00
2022-11-30T06:24:57.764Z,25.27
2022-11-30T06:30:01.436Z,26.25
2022-11-30T06:35:06.118Z,25.73
2022-11-30T06:40:10.866Z,28.30
2022-11-30T06:45:13.730Z,29.40
2022-11-30T06:50:18.501Z,30.27
2022-11-30T06:55:21.349Z,26.98
2022-11-30T07:00:24.385Z,28.23
2022-11-30T07:05:29.320Z,28.48
2022-11-30T07:10:32.175Z,32.72
2022-11-30T07:15:34.892Z,28.88
2022-11-30T07:20:39.710Z,29.58
2022-11-30T07:26:00.287Z,30.77
2022-11-30T07:31:03.525Z,29.40
2022-11-30T07:36:08.343Z,27.70
2022-11-30T07:41:11.101Z,28.48
2022-11-30T07:46:15.831Z,26.58
2022-11-30T07:51:21.678Z,27.23
2022-11-30T07:56:24.981Z,27.38
2022-11-30T08:01:29.693Z,26.67
2022-11-30T08:06:34.064Z,26.90
2022-11-30T08:11:37.460Z,27.25
2022-11-30T08:16:40.496Z,27.40
2022-11-30T08:21:44.763Z,25.60
2022-11-30T08:26:47.477Z,25.40
2022-11-30T08:31:50.206Z,23.65
2022-11-30T08:36:54.288Z,24.45
2022-11-30T08:41:56.990Z,24.33
2022-11-30T08:46:59.857Z,23.05
2022-11-30T08:52:19.370Z,20.55
2022-11-30T08:57:22.588Z,22.15
2022-11-30T09:02:25.432Z,22.02
2022-11-30T09:07:30.878Z,22.05
2022-11-30T09:12:35.687Z,20.85
2022-11-30T09:17:38.452Z,22.23
2022-11-30T09:22:42.623Z,20.33
2022-11-30T09:27:45.384Z,20.17
2022-11-30T09:32:48.302Z,20.80
2022-11-30T09:37:53.903Z,20.33
2022-11-30T09:43:06.495Z,21.05
2022-11-30T09:48:22.857Z,19.30
2022-11-30T09:53:41.141Z,20.10
2022-11-30T09:58:48.991Z,20.50
2022-11-30T10:03:52.084Z,20.48
2022-11-30T10:09:08.562Z,19.48
2022-11-30T10:14:25.656Z,19.48
2022-11-30T10:19:47.906Z,18.50
2022-11-30T10:25:11.917Z,19.33
2022-11-30T10:30:17.988Z,18.58
2022-11-30T10:35:34.481Z,19.08
2022-11-30T10:40:45.133Z,18.42
2022-11-30T10:45:50.865Z,18.80
2022-11-30T10:50:54.378Z,17.83
2022-11-30T10:56:02.624Z,17.95
2022-11-30T11:01:07.839Z,19.67
2022-11-30T11:06:22.479Z,19.52
2022-11-30T11:11:34.471Z,19.27
2022-11-30T11:16:52.082Z,19.33
2022-11-30T11:21:55.077Z,18.98
2022-11-30T11:26:59.710Z,19.52
2022-11-30T11:32:24.784Z,19.02
2022-11-30T11:37:30.908Z,20.27
2022-11-30T11:42:41.949Z,20.23
2022-11-30T11:47:46.306Z,20.33
2022-11-30T11:52:49.047Z,20.63
2022-11-30T11:57:58.046Z,20.92
2022-11-30T12:03:08.841Z,23.65
2022-11-30T12:08:18.027Z,20.60
2022-11-30T12:13:24.772Z,20.02
2022-11-30T12:18:34.949Z,19.25
2022-11-30T12:23:55.994Z,19.00
2022-11-30T12:29:18.208Z,20.63
2022-11-30T12:34:31.425Z,19.63
2022-11-30T12:39:46.160Z,21.20
2022-11-30T12:44:59.846Z,21.00
2022-11-30T12:50:23.770Z,22.15
2022-11-30T12:55:34.199Z,21.33
2022-11-30T13:00:50.814Z,21.48
2022-11-30T13:05:58.918Z,20.90
2022-11-30T13:11:06.924Z,21.65
2022-11-30T13:16:11.199Z,22.30
2022-11-30T13:21:22.935Z,24.00
2022-11-30T13:26:32.493Z,23.23
2022-11-30T13:31:41.005Z,25.05
2022-11-30T13:36:45.719Z,24.55
2022-11-30T13:41:50.694Z,25.63
2022-11-30T13:46:54.924Z,24.13
2022-11-30T13:52:21.640Z,24.50
2022-11-30T13:57:54.347Z,25.38
2022-11-30T14:03:19.381Z,26.50
2022-11-30T14:08:40.064Z,25.88
2022-11-30T14:13:43.932Z,26.05
2022-11-30T14:18:49.099Z,25.95
2022-11-30T14:23:56.474Z,27.38
2022-11-30T14:29:04.948Z,27.92
2022-11-30T14:39:26.645Z,27.13
2022-11-30T14:44:42.637Z,28.08
2022-11-30T14:49:52.598Z,26.60
2022-11-30T14:55:05.586Z,29.58
2022-11-30T15:00:17.517Z,26.83
2022-11-30T15:05:26.739Z,28.83
2022-11-30T15:10:32.000Z,28.00
2022-11-30T15:15:38.773Z,26.52
2022-11-30T15:20:52.220Z,25.08
2022-11-30T15:25:58.485Z,27.60
2022-11-30T15:31:07.242Z,27.67
2022-11-30T15:36:27.931Z,27.75
2022-11-30T15:41:36.016Z,28.67
2022-11-30T15:46:46.377Z,27.70
2022-11-30T15:52:02.235Z,27.17
2022-11-30T15:57:09.124Z,27.42
2022-11-30T16:02:28.255Z,26.52
2022-11-30T16:12:36.515Z,26.90
2022-11-30T16:17:39.280Z,28.23
2022-11-30T16:22:44.828Z,28.40
2022-11-30T16:27:48.706Z,28.27
2022-11-30T16:32:51.865Z,27.02
2022-11-30T16:37:56.107Z,28.40
2022-11-30T16:42:58.956Z,26.63
2022-11-30T16:48:01.859Z,27.05
2022-11-30T16:53:06.609Z,27.50
2022-11-30T16:58:09.444Z,27.95
2022-11-30T17:03:20.879Z,29.52
2022-11-30T17:08:25.060Z,25.98
2022-11-30T17:13:28.199Z,25.42
2022-11-30T17:18:30.983Z,27.42
2022-11-30T17:23:37.207Z,28.65
2022-11-30T17:28:41.120Z,26.25
2022-11-30T17:33:48.142Z,27.55
2022-11-30T17:38:52.544Z,27.33
2022-11-30T17:43:55.403Z,27.02
2022-11-30T17:48:58.520Z,28.90
2022-11-30T17:54:03.072Z,27.83
2022-11-30T17:59:06.059Z,28.05
2022-11-30T18:04:09.057Z,31.10
2022-11-30T18:09:13.260Z,31.33
2022-11-30T18:14:16.271Z,30.98
2022-11-30T18:19:19.100Z,31.83
2022-11-30T18:24:25.493Z,31.08
2022-11-30T18:29:28.976Z,32.85
2022-11-30T18:34:31.892Z,34.33
2022-11-30T18:39:36.114Z,32.88
2022-11-30T18:44:38.870Z,36.22
2022-11-30T18:49:41.673Z,35.03
2022-11-30T18:54:46.281Z,36.92
2022-11-30T18:59:53.695Z,35.70
2022-11-30T19:04:56.877Z,36.50
2022-11-30T19:10:01.321Z,35.35
2022-11-30T19:15:07.505Z,35.47
2022-11-30T19:20:11.637Z,35.83
2022-11-30T19:25:19.191Z,36.72
2022-11-30T19:30:23.629Z,36.75
2022-11-30T19:35:26.594Z,39.80
2022-11-30T19:40:34.141Z,35.42
2022-11-30T19:45:37.151Z,36.43
2022-11-30T19:50:40.140Z,36.72
2022-11-30T19:55:44.435Z,37.40
2022-11-30T20:00:47.725Z,38.90
2022-11-30T20:05:50.886Z,36.92
2022-11-30T20:10:57.205Z,35.75
2022-11-30T20:16:14.250Z,34.63
2022-11-30T20:21:22.418Z,36.17
2022-11-30T20:26:29.957Z,34.65
2022-11-30T20:31:36.248Z,35.30
2022-11-30T20:36:42.173Z,35.70
2022-11-30T20:41:46.405Z,35.22
2022-11-30T20:46:51.303Z,35.67
2022-11-30T20:51:55.660Z,34.92
2022-11-30T20:57:01.605Z,35.90
2022-11-30T21:02:07.008Z,35.72
2022-11-30T21:07:14.508Z,34.97
2022-11-30T21:12:18.706Z,36.42
2022-11-30T21:17:21.940Z,36.15
2022-11-30T21:22:25.148Z,36.67
2022-11-30T21:27:31.344Z,37.75
2022-11-30T21:32:35.552Z,38.00
2022-11-30T21:37:38.515Z,35.80
2022-11-30T21:42:43.880Z,35.47
2022-11-30T21:47:46.788Z,34.55
2022-11-30T21:52:49.620Z,37.55
2022-11-30T21:57:56.096Z,36.28
2022-11-30T22:02:58.928Z,36.08
2022-11-30T22:08:04.283Z,35.88
2022-11-30T22:13:08.571Z,35.53
2022-11-30T22:18:15.383Z,35.75
2022-11-30T22:23:21.742Z,35.35
2022-11-30T22:28:38.903Z,34.70
2022-11-30T22:33:43.041Z,35.72
2022-11-30T22:38:46.855Z,34.00
2022-11-30T22:43:51.116Z,36.10
2022-11-30T22:48:54.373Z,34.35
2022-11-30T22:53:57.119Z,34.25
2022-11-30T22:59:01.797Z,34.42
2022-11-30T23:04:07.048Z,35.28
2022-11-30T23:09:13.327Z,32.75
2022-11-30T23:14:20.827Z,34.28
2022-11-30T23:19:23.740Z,34.40
2022-11-30T23:24:26.523Z,34.80
2022-11-30T23:29:32.717Z,33.95
2022-11-30T23:34:35.511Z,33.65
2022-11-30T23:39:41.369Z,33.80
2022-11-30T23:44:45.503Z,33.13
2022-11-30T23:49:51.816Z,34.35
2022-11-30T23:54:54.564Z,34.22
2022-11-30T23:59:58.638Z,33.38
